Time;durP1;ratioP1;P1;durP2;ratioP2;P2;SDS_P1;SDS_P2;PMS_P1;PMS_P2;Temp;Humidity;BMP_temperature;BMP_pressure;BME280_temperature;BME280_humidity;BME280_pressure;Samples;Min_cycle;Max_cycle;Signal;HPM_P1;HPM_P2
2021/12/07 00:01:25;;;;;;;27.13;14.97;;;0.60;99.90;;;;;;5092278;28;20207;-48
2021/12/07 00:03:53;;;;;;;30.40;15.33;;;0.60;99.90;;;;;;5101757;28;20530;-44
2021/12/07 00:06:20;;;;;;;29.77;16.37;;;0.60;99.90;;;;;;5098308;28;20207;-45
2021/12/07 00:08:49;;;;;;;28.43;17.40;;;0.60;99.90;;;;;;5081804;28;20225;-47
2021/12/07 00:11:17;;;;;;;30.23;16.60;;;0.60;99.90;;;;;;5097907;28;20211;-43
2021/12/07 00:13:44;;;;;;;28.67;15.70;;;0.60;99.90;;;;;;5088302;28;20197;-44
2021/12/07 00:16:13;;;;;;;28.10;15.57;;;0.60;99.90;;;;;;5098768;28;20216;-46
2021/12/07 00:18:41;;;;;;;26.00;15.80;;;0.60;99.90;;;;;;5085743;27;20220;-43
2021/12/07 00:21:09;;;;;;;26.07;14.93;;;0.60;99.90;;;;;;5100196;28;20286;-44
2021/12/07 00:23:37;;;;;;;26.27;15.43;;;0.60;99.90;;;;;;5081518;28;20215;-44
2021/12/07 00:26:04;;;;;;;27.60;15.47;;;0.60;99.90;;;;;;5102343;28;20200;-43
2021/12/07 00:28:31;;;;;;;28.50;15.93;;;0.60;99.90;;;;;;5094147;28;20224;-45
2021/12/07 00:31:08;;;;;;;30.50;17.13;;;0.50;99.90;;;;;;5103851;28;20197;-43
2021/12/07 00:33:44;;;;;;;29.60;15.77;;;0.50;99.90;;;;;;5095507;28;20192;-46
2021/12/07 00:36:11;;;;;;;28.90;15.67;;;0.60;99.90;;;;;;5103440;28;20219;-44
2021/12/07 00:38:39;;;;;;;29.27;16.17;;;0.50;99.90;;;;;;5081164;28;20759;-43
2021/12/07 00:41:06;;;;;;;31.07;16.93;;;0.50;99.90;;;;;;5092114;28;20196;-45
2021/12/07 00:43:36;;;;;;;33.07;16.10;;;0.50;99.90;;;;;;5092551;28;20207;-43
2021/12/07 00:46:03;;;;;;;32.17;17.43;;;0.50;99.90;;;;;;5099945;28;20201;-43
2021/12/07 00:48:31;;;;;;;28.87;16.40;;;0.50;99.90;;;;;;5094592;28;20212;-44
2021/12/07 00:50:59;;;;;;;27.60;15.57;;;0.50;99.90;;;;;;5103735;28;20228;-43
2021/12/07 00:53:28;;;;;;;28.83;15.70;;;0.50;99.90;;;;;;5096301;28;20201;-47
2021/12/07 00:55:59;;;;;;;28.83;16.87;;;0.50;99.90;;;;;;5074888;28;20679;-43
2021/12/07 00:58:27;;;;;;;32.93;16.83;;;0.50;99.90;;;;;;5084883;28;20242;-49
2021/12/07 01:00:57;;;;;;;29.33;16.43;;;0.50;99.90;;;;;;5101783;28;20192;-45
2021/12/07 01:03:25;;;;;;;29.43;15.80;;;0.50;99.90;;;;;;5097084;28;20574;-44
2021/12/07 01:06:06;;;;;;;32.53;17.13;;;0.50;99.90;;;;;;5101880;28;20204;-43
2021/12/07 01:08:55;;;;;;;32.77;17.50;;;0.50;99.90;;;;;;5099431;28;20296;-45
2021/12/07 01:25:10;;;;;;;32.07;17.17;;;0.50;99.90;;;;;;5093757;28;20209;-47
2021/12/07 01:27:37;;;;;;;32.53;17.07;;;0.50;99.90;;;;;;5109879;27;20196;-43
2021/12/07 01:30:11;;;;;;;35.97;18.87;;;0.40;99.90;;;;;;5105977;28;20635;-49
2021/12/07 01:33:11;;;;;;;35.97;18.90;;;0.40;99.90;;;;;;5100727;28;20320;-50
2021/12/07 01:35:53;;;;;;;32.23;18.03;;;0.40;99.90;;;;;;5098302;28;20992;-44
2021/12/07 01:39:29;;;;;;;33.50;18.93;;;0.40;99.90;;;;;;5103647;28;20277;-42
2021/12/07 01:42:45;;;;;;;33.33;16.80;;;0.40;99.90;;;;;;5084979;28;20214;-45
2021/12/07 01:44:43;;;;;;;34.50;17.60;;;0.40;99.90;;;;;;5096028;28;20802;-46
2021/12/07 01:47:29;;;;;;;31.43;17.37;;;0.40;99.90;;;;;;5104498;28;20661;-45
2021/12/07 01:50:21;;;;;;;32.93;17.40;;;0.40;99.90;;;;;;5102645;28;20569;-44
2021/12/07 01:53:08;;;;;;;34.50;17.63;;;0.40;99.90;;;;;;5104354;28;20201;-43
2021/12/07 02:01:09;;;;;;;34.00;18.37;;;0.30;99.90;;;;;;5101253;28;20284;-43
2021/12/07 02:03:38;;;;;;;33.00;17.70;;;0.40;99.90;;;;;;5101483;28;20239;-45
2021/12/07 02:06:06;;;;;;;37.97;19.77;;;0.30;99.90;;;;;;5101195;28;20223;-44
2021/12/07 02:08:33;;;;;;;33.07;17.90;;;0.30;99.90;;;;;;5100518;28;20239;-45
2021/12/07 02:11:02;;;;;;;35.90;19.10;;;0.40;99.90;;;;;;5092055;28;20208;-43
2021/12/07 02:16:17;;;;;;;33.13;16.30;;;0.40;99.90;;;;;;5101597;28;20656;-43
2021/12/07 02:18:45;;;;;;;35.40;18.70;;;0.40;99.90;;;;;;5103259;28;20236;-47
2021/12/07 02:21:23;;;;;;;30.07;16.70;;;0.40;99.90;;;;;;5101179;28;20192;-46
2021/12/07 02:23:56;;;;;;;33.80;18.13;;;0.30;99.90;;;;;;5105012;28;20265;-45
2021/12/07 02:26:22;;;;;;;32.90;18.23;;;0.40;99.90;;;;;;5094441;28;20641;-43
2021/12/07 02:28:52;;;;;;;33.30;18.43;;;0.30;99.90;;;;;;5088640;28;20233;-43
2021/12/07 02:31:20;;;;;;;32.53;17.73;;;0.40;99.90;;;;;;5089373;28;20295;-49
2021/12/07 02:33:47;;;;;;;35.13;18.33;;;0.40;99.90;;;;;;5104600;28;20240;-45
2021/12/07 02:36:14;;;;;;;32.73;17.70;;;0.40;99.90;;;;;;5098111;28;20610;-48
2021/12/07 02:38:42;;;;;;;30.17;17.13;;;0.40;99.90;;;;;;5104500;28;20230;-43
2021/12/07 02:41:09;;;;;;;35.80;19.07;;;0.40;99.90;;;;;;5100947;28;20604;-47
2021/12/07 02:43:36;;;;;;;34.20;18.67;;;0.40;99.90;;;;;;5089754;28;20256;-42
2021/12/07 02:46:03;;;;;;;35.23;18.57;;;0.40;99.90;;;;;;5100619;28;20200;-43
2021/12/07 02:48:31;;;;;;;36.03;18.97;;;0.40;99.90;;;;;;5101703;28;20832;-44
2021/12/07 02:51:00;;;;;;;34.40;17.63;;;0.40;99.90;;;;;;5104068;28;20197;-46
2021/12/07 02:53:30;;;;;;;32.17;18.13;;;0.40;99.90;;;;;;5096466;28;20192;-48
2021/12/07 02:56:00;;;;;;;33.37;17.77;;;0.40;99.90;;;;;;5103791;28;20211;-43
2021/12/07 02:58:30;;;;;;;33.23;18.17;;;0.40;99.90;;;;;;5088722;28;20426;-44
2021/12/07 03:01:04;;;;;;;33.30;18.20;;;0.30;99.90;;;;;;5094527;28;20288;-47
2021/12/07 03:03:38;;;;;;;35.87;19.40;;;0.40;99.90;;;;;;5098807;28;20249;-45
2021/12/07 03:06:14;;;;;;;34.40;17.90;;;0.40;99.90;;;;;;5102227;28;20249;-43
2021/12/07 03:09:16;;;;;;;33.63;19.23;;;0.30;99.90;;;;;;5099409;28;20212;-45
2021/12/07 03:28:20;;;;;;;35.53;19.10;;;0.40;99.90;;;;;;5099228;28;20247;-49
2021/12/07 03:30:46;;;;;;;34.93;18.73;;;0.40;99.90;;;;;;5091826;28;20306;-43
2021/12/07 03:33:15;;;;;;;32.83;18.57;;;0.40;99.90;;;;;;5089666;28;20194;-43
2021/12/07 03:35:41;;;;;;;33.13;19.07;;;0.50;99.90;;;;;;5105029;28;20211;-45
2021/12/07 03:38:10;;;;;;;32.50;19.27;;;0.50;99.90;;;;;;5100306;28;20298;-44
2021/12/07 03:40:39;;;;;;;34.67;17.87;;;0.50;99.90;;;;;;5095512;28;20245;-44
2021/12/07 03:43:08;;;;;;;34.60;18.73;;;0.50;99.90;;;;;;5101465;28;20201;-45
2021/12/07 03:45:37;;;;;;;35.80;18.23;;;0.50;99.90;;;;;;5088475;28;23597;-43
2021/12/07 03:48:06;;;;;;;32.17;18.53;;;0.50;99.90;;;;;;5095824;28;20320;-46
2021/12/07 03:50:34;;;;;;;33.23;18.47;;;0.50;99.90;;;;;;5100559;28;20200;-44
2021/12/07 03:53:01;;;;;;;36.57;18.20;;;0.50;99.90;;;;;;5102584;28;20298;-44
2021/12/07 03:55:28;;;;;;;38.57;20.90;;;0.50;99.90;;;;;;5096324;28;22440;-46
2021/12/07 03:57:55;;;;;;;32.97;18.40;;;0.50;99.90;;;;;;5102914;28;20736;-45
2021/12/07 04:00:24;;;;;;;31.77;17.77;;;0.50;99.90;;;;;;5099183;28;20197;-44
2021/12/07 04:02:58;;;;;;;33.50;18.10;;;0.60;99.90;;;;;;5090201;28;20688;-44
2021/12/07 04:05:26;;;;;;;32.83;18.23;;;0.60;99.90;;;;;;5090183;28;21026;-45
2021/12/07 04:07:53;;;;;;;38.57;19.87;;;0.60;99.90;;;;;;5119554;27;20220;-44
2021/12/07 04:10:25;;;;;;;34.37;18.40;;;0.60;99.90;;;;;;5098085;28;20201;-43
2021/12/07 04:12:52;;;;;;;35.40;19.10;;;0.60;99.90;;;;;;5110184;27;20212;-42
2021/12/07 04:15:19;;;;;;;35.37;17.90;;;0.60;99.90;;;;;;5100041;28;20388;-45
2021/12/07 04:17:46;;;;;;;37.13;19.43;;;0.60;99.90;;;;;;5091011;28;20232;-44
2021/12/07 04:20:18;;;;;;;35.93;20.40;;;0.60;99.90;;;;;;5094303;28;20255;-45
2021/12/07 04:22:45;;;;;;;34.13;18.60;;;0.70;99.90;;;;;;5101060;28;20703;-43
2021/12/07 04:25:13;;;;;;;39.30;21.53;;;0.60;99.90;;;;;;5101132;28;20223;-42
2021/12/07 04:27:40;;;;;;;36.17;18.10;;;0.60;99.90;;;;;;5099097;28;20204;-43
2021/12/07 04:30:11;;;;;;;37.23;19.27;;;0.70;99.90;;;;;;5101858;28;20208;-42
2021/12/07 04:32:37;;;;;;;34.23;18.53;;;0.70;99.90;;;;;;5102977;28;20199;-41
2021/12/07 04:35:06;;;;;;;38.80;19.07;;;0.70;99.90;;;;;;5083209;28;20677;-43
2021/12/07 04:37:34;;;;;;;37.13;19.63;;;0.70;99.90;;;;;;5092511;28;20234;-42
2021/12/07 04:40:00;;;;;;;35.17;20.13;;;0.70;99.90;;;;;;5103174;28;20200;-42
2021/12/07 04:42:27;;;;;;;40.90;19.40;;;0.70;99.90;;;;;;5092687;28;20217;-42
2021/12/07 04:44:58;;;;;;;39.90;19.63;;;0.70;99.90;;;;;;5093061;28;20287;-42
2021/12/07 04:47:34;;;;;;;35.23;19.43;;;0.70;99.90;;;;;;5099344;28;20270;-46
2021/12/07 04:58:23;;;;;;;34.00;18.83;;;0.80;99.90;;;;;;5051903;28;20234;-42
2021/12/07 05:00:50;;;;;;;39.00;20.40;;;0.80;99.90;;;;;;5088017;28;20219;-44
2021/12/07 05:03:17;;;;;;;32.73;19.37;;;0.80;99.90;;;;;;5093675;28;20208;-45
2021/12/07 05:05:47;;;;;;;31.83;17.93;;;0.80;99.90;;;;;;5090849;28;20205;-43
2021/12/07 05:08:22;;;;;;;33.13;18.40;;;0.80;99.90;;;;;;5087483;28;20239;-46
2021/12/07 05:11:23;;;;;;;35.57;19.47;;;0.80;99.90;;;;;;5097055;28;20963;-43
2021/12/07 05:13:56;;;;;;;39.83;20.23;;;0.80;99.90;;;;;;5091671;28;20379;-43
2021/12/07 05:23:53;;;;;;;40.20;19.60;;;0.80;99.90;;;;;;5097549;28;20592;-42
2021/12/07 05:25:03;;;;;;;32.53;17.77;;;0.80;99.90;;;;;;5097239;28;20197;-44
2021/12/07 05:38:30;;;;;;;40.57;19.83;;;0.80;99.90;;;;;;5098242;28;20228;-42
2021/12/07 05:40:58;;;;;;;37.07;19.13;;;0.80;99.90;;;;;;5098669;28;20198;-43
2021/12/07 05:43:25;;;;;;;34.80;18.63;;;0.80;99.90;;;;;;5102395;28;20215;-45
2021/12/07 05:45:52;;;;;;;39.43;20.40;;;0.80;99.90;;;;;;5095264;28;20477;-43
2021/12/07 05:48:18;;;;;;;36.40;19.27;;;0.80;99.90;;;;;;5102323;28;20300;-44
2021/12/07 05:50:45;;;;;;;36.87;19.37;;;0.80;99.90;;;;;;5086060;28;20210;-43
2021/12/07 05:53:13;;;;;;;34.13;18.97;;;0.80;99.90;;;;;;5091826;28;20197;-48
2021/12/07 05:55:39;;;;;;;38.77;19.87;;;0.80;99.90;;;;;;5096427;28;20193;-46
2021/12/07 05:58:08;;;;;;;34.40;18.67;;;0.80;99.90;;;;;;5101799;28;20232;-48
2021/12/07 06:00:36;;;;;;;35.27;18.73;;;0.80;99.90;;;;;;5095776;28;20273;-46
2021/12/07 06:03:06;;;;;;;39.90;20.07;;;0.80;99.90;;;;;;5102195;28;20213;-46
2021/12/07 06:05:34;;;;;;;34.33;18.47;;;0.80;99.90;;;;;;5094196;28;20212;-46
2021/12/07 06:08:02;;;;;;;37.67;18.77;;;0.80;99.90;;;;;;5095842;28;20225;-44
2021/12/07 06:10:29;;;;;;;32.57;17.40;;;0.90;99.90;;;;;;5103796;27;20220;-48
2021/12/07 06:12:55;;;;;;;32.40;17.93;;;0.80;99.90;;;;;;5104560;28;20207;-43
2021/12/07 06:15:26;;;;;;;35.00;18.57;;;0.90;99.90;;;;;;5101049;28;20212;-44
2021/12/07 06:17:54;;;;;;;33.57;18.60;;;0.90;99.90;;;;;;5098228;28;20220;-48
2021/12/07 06:20:22;;;;;;;34.90;18.47;;;0.80;99.90;;;;;;5104845;28;20575;-45
2021/12/07 06:22:48;;;;;;;31.70;17.43;;;0.80;99.90;;;;;;5082492;28;20213;-47
2021/12/07 06:25:15;;;;;;;32.17;17.80;;;0.80;99.90;;;;;;5098306;28;20185;-42
2021/12/07 06:27:43;;;;;;;36.07;18.30;;;0.80;99.90;;;;;;5100685;28;20201;-43
2021/12/07 06:30:12;;;;;;;31.43;16.17;;;0.80;99.90;;;;;;5095378;28;20219;-42
2021/12/07 06:32:40;;;;;;;32.67;17.97;;;0.80;99.90;;;;;;5101477;28;20197;-43
2021/12/07 06:35:09;;;;;;;32.07;17.67;;;0.80;99.90;;;;;;5102089;28;20944;-46
2021/12/07 06:37:35;;;;;;;29.10;17.07;;;0.80;99.90;;;;;;5078573;28;20209;-46
2021/12/07 06:40:02;;;;;;;32.27;16.60;;;0.80;99.90;;;;;;5098974;28;20204;-43
2021/12/07 06:42:29;;;;;;;30.90;16.90;;;0.80;99.90;;;;;;5098349;28;20211;-47
2021/12/07 06:44:56;;;;;;;30.23;16.83;;;0.80;99.90;;;;;;5091660;28;20215;-43
2021/12/07 06:47:25;;;;;;;26.07;15.30;;;0.80;99.90;;;;;;5103536;28;20200;-42
2021/12/07 06:49:53;;;;;;;32.53;16.10;;;0.80;99.90;;;;;;5102735;28;20222;-45
2021/12/07 06:52:20;;;;;;;30.77;16.50;;;0.80;99.90;;;;;;5089901;28;20896;-44
2021/12/07 06:54:46;;;;;;;30.47;16.73;;;0.80;99.90;;;;;;5104264;28;20208;-47
2021/12/07 06:57:13;;;;;;;29.60;17.23;;;0.80;99.90;;;;;;5096623;28;20528;-45
2021/12/07 06:59:39;;;;;;;29.67;15.63;;;0.80;99.90;;;;;;5100854;28;20216;-43
2021/12/07 07:02:06;;;;;;;31.20;17.67;;;0.80;99.90;;;;;;5101749;28;20204;-45
2021/12/07 07:04:33;;;;;;;33.10;17.33;;;0.80;99.90;;;;;;5105372;28;20200;-43
2021/12/07 07:07:01;;;;;;;28.60;17.10;;;0.80;99.90;;;;;;5091498;27;20687;-43
2021/12/07 07:09:27;;;;;;;32.57;16.43;;;0.80;99.90;;;;;;5092413;28;20224;-45
2021/12/07 07:11:54;;;;;;;28.90;15.93;;;0.80;99.90;;;;;;5097205;28;20555;-44
2021/12/07 07:14:21;;;;;;;30.33;16.70;;;0.80;99.90;;;;;;5098228;28;20196;-45
2021/12/07 07:16:47;;;;;;;30.83;16.53;;;0.80;99.90;;;;;;5099446;28;20204;-43
2021/12/07 07:19:14;;;;;;;31.13;16.60;;;0.80;99.90;;;;;;5092757;27;20270;-45
2021/12/07 07:21:41;;;;;;;27.90;16.50;;;0.80;99.90;;;;;;5102628;28;20203;-46
2021/12/07 07:24:09;;;;;;;27.90;16.83;;;0.90;99.90;;;;;;5075410;28;20227;-45
2021/12/07 07:26:36;;;;;;;33.40;17.37;;;0.90;99.90;;;;;;5096236;28;20555;-43
2021/12/07 07:29:03;;;;;;;30.93;17.03;;;0.90;99.90;;;;;;5097258;28;20622;-45
2021/12/07 07:31:30;;;;;;;31.77;17.30;;;0.90;99.90;;;;;;5099917;28;20208;-46
2021/12/07 07:33:56;;;;;;;35.97;18.30;;;0.90;99.90;;;;;;5102957;28;20196;-43
2021/12/07 07:36:23;;;;;;;32.00;17.27;;;0.90;99.90;;;;;;5099472;27;20268;-42
2021/12/07 07:38:50;;;;;;;31.00;18.37;;;0.90;99.90;;;;;;5075871;28;20250;-45
2021/12/07 07:41:19;;;;;;;27.73;16.00;;;0.90;99.90;;;;;;5089998;28;20205;-44
2021/12/07 07:43:46;;;;;;;30.17;16.10;;;0.90;99.90;;;;;;5101305;28;20208;-43
2021/12/07 07:46:16;;;;;;;34.47;17.67;;;0.90;99.90;;;;;;5096445;28;20427;-44
2021/12/07 07:48:45;;;;;;;31.27;17.33;;;0.90;99.90;;;;;;5099984;28;20220;-44
2021/12/07 07:51:12;;;;;;;31.67;17.23;;;0.90;99.90;;;;;;5101618;28;20942;-43
2021/12/07 07:53:38;;;;;;;33.37;17.43;;;0.90;99.90;;;;;;5087605;27;20566;-42
2021/12/07 07:56:06;;;;;;;33.50;18.13;;;0.90;99.90;;;;;;5089281;28;20207;-42
2021/12/07 07:58:34;;;;;;;31.47;17.23;;;0.90;99.90;;;;;;5099556;28;20225;-48
2021/12/07 08:01:01;;;;;;;33.47;18.40;;;0.90;99.90;;;;;;5094736;28;20189;-43
2021/12/07 08:03:27;;;;;;;33.40;17.37;;;0.90;99.90;;;;;;5091327;28;20189;-43
2021/12/07 08:05:54;;;;;;;31.83;17.93;;;0.90;99.90;;;;;;5091581;28;20211;-43
2021/12/07 08:08:24;;;;;;;31.50;16.97;;;0.90;99.90;;;;;;5111784;27;20217;-42
2021/12/07 08:10:51;;;;;;;34.70;18.53;;;0.90;99.90;;;;;;5080396;28;20216;-45
2021/12/07 08:13:20;;;;;;;32.50;17.63;;;0.90;99.90;;;;;;5096697;28;20215;-43
2021/12/07 08:15:49;;;;;;;30.87;16.10;;;0.90;99.90;;;;;;5100539;28;20205;-43
2021/12/07 08:18:17;;;;;;;32.63;17.43;;;0.90;99.90;;;;;;5089949;28;20225;-43
2021/12/07 08:20:45;;;;;;;35.47;18.70;;;0.90;99.90;;;;;;5101040;28;20548;-43
2021/12/07 08:23:12;;;;;;;29.53;16.93;;;0.90;99.90;;;;;;5100091;28;20196;-45
2021/12/07 08:25:41;;;;;;;34.93;18.67;;;0.90;99.90;;;;;;5085457;27;20213;-43
2021/12/07 08:28:11;;;;;;;32.80;17.47;;;0.90;99.90;;;;;;5089919;28;20232;-48
2021/12/07 08:30:39;;;;;;;33.83;18.07;;;0.90;99.90;;;;;;5098208;28;20271;-45
2021/12/07 08:33:08;;;;;;;30.60;17.00;;;0.90;99.90;;;;;;5093035;28;20208;-47
2021/12/07 08:35:35;;;;;;;37.83;19.33;;;0.90;99.90;;;;;;5103640;28;20216;-43
2021/12/07 08:38:03;;;;;;;36.40;18.87;;;0.90;99.90;;;;;;5097121;28;20321;-44
2021/12/07 08:40:32;;;;;;;31.23;18.07;;;0.90;99.90;;;;;;5086487;28;20216;-45
2021/12/07 08:42:59;;;;;;;30.50;17.30;;;0.90;99.90;;;;;;5098255;28;20249;-43
2021/12/07 08:45:27;;;;;;;31.27;17.77;;;0.90;99.90;;;;;;5098495;28;20216;-44
2021/12/07 08:47:55;;;;;;;36.90;18.57;;;0.90;99.90;;;;;;5093850;28;20224;-45
2021/12/07 08:50:27;;;;;;;33.60;18.00;;;0.90;99.90;;;;;;5092114;28;20270;-43
2021/12/07 08:53:02;;;;;;;35.47;18.47;;;1.00;99.90;;;;;;5100157;28;20208;-44
2021/12/07 09:00:58;;;;;;;35.33;17.93;;;0.90;99.90;;;;;;5090424;28;20284;-43
2021/12/07 09:03:25;;;;;;;33.13;18.03;;;1.00;99.90;;;;;;5098847;28;20668;-45
2021/12/07 09:05:53;;;;;;;39.43;19.40;;;1.00;99.90;;;;;;5100283;28;20196;-43
2021/12/07 09:08:20;;;;;;;36.37;17.47;;;1.00;99.90;;;;;;5099859;28;20793;-43
2021/12/07 09:10:47;;;;;;;41.23;19.20;;;1.00;99.90;;;;;;5096613;28;20211;-42
2021/12/07 09:13:14;;;;;;;36.03;18.20;;;1.10;99.90;;;;;;5087823;28;20200;-46
2021/12/07 09:15:40;;;;;;;32.77;18.20;;;1.10;99.90;;;;;;5096871;28;20205;-44
2021/12/07 09:18:07;;;;;;;35.37;18.33;;;1.10;99.90;;;;;;5098126;28;20243;-44
2021/12/07 09:20:35;;;;;;;29.60;17.73;;;1.10;99.90;;;;;;5096108;28;20234;-44
2021/12/07 09:23:03;;;;;;;32.27;17.87;;;1.10;99.90;;;;;;5097349;28;20207;-46
2021/12/07 09:25:30;;;;;;;31.93;16.90;;;1.20;99.90;;;;;;5103095;28;20201;-44
2021/12/07 09:27:58;;;;;;;34.97;18.10;;;1.20;99.90;;;;;;5078569;28;20617;-43
2021/12/07 09:30:25;;;;;;;32.17;17.47;;;1.20;99.90;;;;;;5099010;28;20247;-44
2021/12/07 09:32:51;;;;;;;34.80;19.63;;;1.20;99.90;;;;;;5099060;28;20209;-46
2021/12/07 09:35:20;;;;;;;27.97;16.50;;;1.30;99.90;;;;;;5097231;28;20200;-45
2021/12/07 09:37:48;;;;;;;36.17;18.07;;;1.30;99.90;;;;;;5091909;28;20701;-42
2021/12/07 09:40:18;;;;;;;37.07;18.93;;;1.30;99.90;;;;;;5096620;28;20228;-42
2021/12/07 09:42:45;;;;;;;34.57;18.83;;;1.30;99.90;;;;;;5086670;28;20206;-43
2021/12/07 09:45:14;;;;;;;36.13;18.87;;;1.30;99.90;;;;;;5095694;28;20573;-43
2021/12/07 09:47:41;;;;;;;34.33;19.03;;;1.30;99.90;;;;;;5099657;27;20212;-45
2021/12/07 09:50:11;;;;;;;32.30;17.47;;;1.40;99.90;;;;;;5089238;28;20313;-44
2021/12/07 09:52:38;;;;;;;34.50;17.83;;;1.40;99.90;;;;;;5103746;28;20218;-44
2021/12/07 09:55:05;;;;;;;36.77;18.70;;;1.40;99.90;;;;;;5104650;28;20201;-43
2021/12/07 09:57:33;;;;;;;31.67;16.73;;;1.40;99.90;;;;;;5091585;27;20201;-44
2021/12/07 10:00:00;;;;;;;30.93;16.50;;;1.40;99.90;;;;;;5101332;28;20444;-43
2021/12/07 10:02:27;;;;;;;31.73;18.63;;;1.30;99.90;;;;;;5098474;28;20206;-42
2021/12/07 10:04:54;;;;;;;34.43;17.57;;;1.30;99.90;;;;;;5098033;28;20922;-43
2021/12/07 10:07:20;;;;;;;34.77;18.27;;;1.30;99.90;;;;;;5104638;28;20197;-43
2021/12/07 10:09:48;;;;;;;31.17;17.83;;;1.40;99.90;;;;;;5096959;28;20225;-44
2021/12/07 10:12:19;;;;;;;30.83;17.33;;;1.40;99.90;;;;;;5094564;28;20211;-42
2021/12/07 10:14:47;;;;;;;28.87;16.87;;;1.40;99.90;;;;;;5085552;27;20210;-43
2021/12/07 10:17:14;;;;;;;31.93;18.13;;;1.40;99.90;;;;;;5095323;28;20205;-47
2021/12/07 10:19:45;;;;;;;31.50;18.43;;;1.50;99.90;;;;;;5102056;28;20286;-43
2021/12/07 10:22:16;;;;;;;30.93;17.80;;;1.50;99.90;;;;;;5104158;28;20287;-44
2021/12/07 10:24:47;;;;;;;31.30;17.63;;;1.50;99.90;;;;;;5102890;28;20193;-43
2021/12/07 10:27:31;;;;;;;33.40;17.73;;;1.50;99.90;;;;;;5103200;28;20238;-44
2021/12/07 10:29:59;;;;;;;33.33;17.30;;;1.50;99.90;;;;;;5080369;27;20324;-44
2021/12/07 10:32:26;;;;;;;32.67;16.97;;;1.50;99.90;;;;;;5104306;28;20619;-45
2021/12/07 10:34:52;;;;;;;31.47;17.37;;;1.50;99.90;;;;;;5092746;28;20979;-45
2021/12/07 10:37:20;;;;;;;31.27;16.93;;;1.50;99.90;;;;;;5101329;28;20649;-46
2021/12/07 10:39:49;;;;;;;33.37;15.80;;;1.50;99.90;;;;;;5100329;28;20213;-45
2021/12/07 10:42:19;;;;;;;28.90;16.90;;;1.50;99.90;;;;;;5103040;28;20563;-44
2021/12/07 10:44:46;;;;;;;32.73;17.43;;;1.60;99.90;;;;;;5087784;27;20232;-45
2021/12/07 10:47:16;;;;;;;30.13;17.20;;;1.60;99.90;;;;;;5103068;28;20202;-43
2021/12/07 10:49:44;;;;;;;34.07;17.50;;;1.60;99.90;;;;;;5097432;28;20219;-45
2021/12/07 10:52:26;;;;;;;30.37;15.83;;;1.60;99.90;;;;;;5099997;27;20242;-43
2021/12/07 10:55:06;;;;;;;28.43;16.87;;;1.60;99.90;;;;;;5099556;28;20193;-44
2021/12/07 10:57:36;;;;;;;31.60;16.93;;;1.60;99.90;;;;;;5093396;28;20203;-43
2021/12/07 11:00:20;;;;;;;30.40;17.20;;;1.70;99.90;;;;;;5096387;28;20216;-44
2021/12/07 11:02:51;;;;;;;34.60;17.23;;;1.70;99.90;;;;;;5097402;28;20212;-45
2021/12/07 11:05:21;;;;;;;30.37;16.50;;;1.70;99.90;;;;;;5067707;28;20224;-41
2021/12/07 11:07:50;;;;;;;30.97;16.90;;;1.80;99.90;;;;;;5084900;28;20425;-43
2021/12/07 11:10:22;;;;;;;30.37;16.73;;;1.80;99.90;;;;;;5096873;28;20201;-41
2021/12/07 11:12:57;;;;;;;34.20;16.93;;;1.70;99.90;;;;;;5103963;28;20220;-42
2021/12/07 11:15:26;;;;;;;29.47;16.67;;;1.80;99.90;;;;;;5082981;28;20216;-42
2021/12/07 11:17:56;;;;;;;29.30;16.07;;;1.80;99.90;;;;;;5102194;28;20275;-42
2021/12/07 11:20:24;;;;;;;28.57;17.10;;;1.80;99.90;;;;;;5096441;28;20224;-42
2021/12/07 11:22:55;;;;;;;27.23;15.60;;;1.80;99.90;;;;;;5100918;28;20253;-45
2021/12/07 11:31:16;;;;;;;31.97;17.17;;;2.00;99.90;;;;;;5085955;28;20184;-45
2021/12/07 11:33:44;;;;;;;31.53;16.70;;;2.00;99.90;;;;;;5098526;28;20226;-42
2021/12/07 11:36:26;;;;;;;30.03;16.33;;;2.00;99.90;;;;;;5091071;28;20298;-42
2021/12/07 11:38:54;;;;;;;31.23;17.17;;;2.10;99.90;;;;;;5092297;28;20236;-44
2021/12/07 11:41:25;;;;;;;31.97;17.27;;;2.00;99.90;;;;;;5103461;27;20201;-43
2021/12/07 11:43:57;;;;;;;29.50;16.43;;;2.00;99.90;;;;;;5100317;28;20399;-43
2021/12/07 11:46:27;;;;;;;30.60;16.13;;;2.00;99.90;;;;;;5081808;28;20212;-45
2021/12/07 11:49:20;;;;;;;30.57;16.80;;;2.00;99.90;;;;;;5092965;28;20244;-42
2021/12/07 11:51:49;;;;;;;31.60;17.20;;;2.00;99.90;;;;;;5070373;28;20241;-43
2021/12/07 11:54:18;;;;;;;30.43;16.57;;;2.00;99.90;;;;;;5099347;28;20213;-45
2021/12/07 11:56:46;;;;;;;30.90;16.53;;;2.00;99.90;;;;;;5095119;28;20847;-43
2021/12/07 11:59:14;;;;;;;29.20;16.17;;;2.10;99.90;;;;;;5096726;28;20208;-43
2021/12/07 12:01:42;;;;;;;29.30;16.93;;;2.00;99.90;;;;;;5086041;28;20217;-43
2021/12/07 12:04:08;;;;;;;28.63;16.67;;;2.10;99.90;;;;;;5095127;28;20279;-42
2021/12/07 12:06:36;;;;;;;30.17;17.23;;;2.10;99.90;;;;;;5094603;28;20196;-42
2021/12/07 12:09:04;;;;;;;29.37;16.80;;;2.10;99.90;;;;;;5094447;28;20787;-42
2021/12/07 12:11:40;;;;;;;30.20;16.30;;;2.10;99.90;;;;;;5094431;28;20210;-43
2021/12/07 12:14:27;;;;;;;32.43;17.13;;;2.20;99.90;;;;;;5102712;28;20197;-44
2021/12/07 12:17:03;;;;;;;32.20;17.87;;;2.20;99.90;;;;;;5087502;28;20232;-42
2021/12/07 12:19:41;;;;;;;30.10;17.30;;;2.20;99.90;;;;;;5096749;28;20217;-43
2021/12/07 12:22:16;;;;;;;32.20;17.53;;;2.20;99.90;;;;;;5102781;28;20208;-42
2021/12/07 12:24:49;;;;;;;33.37;17.73;;;2.20;99.90;;;;;;5089542;28;20680;-43
2021/12/07 12:27:18;;;;;;;25.87;15.23;;;2.20;99.90;;;;;;5097628;28;20205;-43
2021/12/07 12:29:47;;;;;;;31.73;17.40;;;2.20;99.90;;;;;;5097874;27;20223;-43
2021/12/07 12:32:14;;;;;;;32.77;18.53;;;2.20;99.90;;;;;;5102376;28;20197;-44
2021/12/07 12:34:49;;;;;;;30.47;17.27;;;2.20;99.90;;;;;;5082720;28;20204;-43
2021/12/07 12:37:20;;;;;;;33.23;17.67;;;2.30;99.90;;;;;;5093322;28;20195;-44
2021/12/07 12:39:50;;;;;;;31.20;17.97;;;2.30;99.90;;;;;;5087390;28;20301;-44
2021/12/07 12:42:24;;;;;;;29.40;17.30;;;2.30;99.90;;;;;;5097827;28;20285;-44
2021/12/07 12:44:58;;;;;;;30.83;17.73;;;2.30;99.90;;;;;;5096348;28;21030;-43
2021/12/07 12:47:26;;;;;;;30.40;18.07;;;2.30;99.90;;;;;;5095587;28;20200;-42
2021/12/07 12:49:53;;;;;;;28.67;16.67;;;2.30;99.90;;;;;;5080277;27;21813;-42
2021/12/07 12:52:38;;;;;;;29.83;17.73;;;2.40;99.90;;;;;;5102842;28;20266;-45
2021/12/07 12:55:06;;;;;;;36.80;18.37;;;2.30;99.90;;;;;;5090461;28;20202;-44
2021/12/07 12:57:33;;;;;;;32.97;18.27;;;2.30;99.90;;;;;;5099146;28;20658;-44
2021/12/07 12:59:59;;;;;;;32.37;17.53;;;2.30;99.90;;;;;;5099018;28;20895;-46
2021/12/07 13:02:29;;;;;;;32.20;17.93;;;2.30;99.90;;;;;;5101326;28;20555;-43
2021/12/07 13:05:04;;;;;;;32.73;17.67;;;2.30;99.90;;;;;;5083503;28;20343;-45
2021/12/07 13:07:32;;;;;;;31.40;17.97;;;2.30;99.90;;;;;;5097180;28;20281;-46
2021/12/07 13:10:02;;;;;;;32.37;17.47;;;2.30;99.90;;;;;;5091196;28;20189;-44
2021/12/07 13:12:33;;;;;;;32.57;17.33;;;2.30;99.90;;;;;;5100569;28;20190;-46
2021/12/07 13:15:05;;;;;;;33.63;16.87;;;2.30;99.90;;;;;;5094645;28;20205;-45
2021/12/07 13:17:35;;;;;;;32.87;17.60;;;2.30;99.90;;;;;;5102646;27;20205;-46
2021/12/07 13:20:24;;;;;;;31.17;17.83;;;2.30;99.90;;;;;;5093479;28;20288;-46
2021/12/07 13:22:57;;;;;;;32.63;17.80;;;2.30;99.90;;;;;;5097508;28;20243;-45
2021/12/07 13:25:27;;;;;;;34.33;17.70;;;2.30;99.90;;;;;;5103665;28;20200;-43
2021/12/07 13:28:32;;;;;;;35.83;18.30;;;2.30;99.90;;;;;;5102834;28;20243;-43
2021/12/07 13:31:03;;;;;;;32.43;18.10;;;2.30;99.90;;;;;;5087834;28;20220;-44
2021/12/07 13:33:39;;;;;;;32.73;17.63;;;2.30;99.90;;;;;;5103465;28;20196;-45
2021/12/07 13:36:46;;;;;;;32.90;19.03;;;2.30;99.90;;;;;;5093862;28;20712;-43
2021/12/07 13:39:37;;;;;;;33.70;17.60;;;2.30;99.90;;;;;;5095307;28;20715;-45
2021/12/07 13:42:07;;;;;;;31.50;17.63;;;2.30;99.90;;;;;;5096853;28;20684;-44
2021/12/07 13:44:37;;;;;;;38.50;18.73;;;2.30;99.90;;;;;;5092285;28;20201;-44
2021/12/07 13:47:06;;;;;;;31.50;17.80;;;2.30;99.90;;;;;;5100712;28;20429;-48
2021/12/07 13:49:34;;;;;;;33.43;17.67;;;2.20;99.90;;;;;;5090938;28;21075;-46
2021/12/07 13:52:08;;;;;;;35.37;18.17;;;2.20;99.90;;;;;;5093608;28;20212;-42
2021/12/07 13:54:42;;;;;;;36.33;18.93;;;2.10;99.90;;;;;;5101882;28;21141;-42
2021/12/07 13:57:17;;;;;;;29.83;17.13;;;2.10;99.90;;;;;;5086437;28;20205;-44
2021/12/07 13:59:44;;;;;;;39.03;17.93;;;2.10;99.90;;;;;;5097805;28;20223;-42
2021/12/07 14:02:10;;;;;;;30.40;17.57;;;2.00;99.90;;;;;;5094197;28;21030;-43
2021/12/07 14:04:37;;;;;;;37.27;19.10;;;2.10;99.90;;;;;;5098971;28;20197;-49
2021/12/07 14:07:04;;;;;;;34.87;18.20;;;2.10;99.90;;;;;;5084957;28;20973;-45